sensor_id;sensor_type;location;lat;lon;timestamp;temperature;humidity
34640;DHT22;22600;48.186;11.526;2022-08-24T00:00:13;23.90;56.60
34640;DHT22;22600;48.186;11.526;2022-08-24T00:02:39;23.90;56.60
34640;DHT22;22600;48.186;11.526;2022-08-24T00:05:06;23.90;56.50
34640;DHT22;22600;48.186;11.526;2022-08-24T00:07:32;23.90;56.50
34640;DHT22;22600;48.186;11.526;2022-08-24T00:09:59;24.00;56.60
34640;DHT22;22600;48.186;11.526;2022-08-24T00:12:25;23.90;56.50
34640;DHT22;22600;48.186;11.526;2022-08-24T00:14:50;21.20;55.10
34640;DHT22;22600;48.186;11.526;2022-08-24T00:17:16;23.90;56.40
34640;DHT22;22600;48.186;11.526;2022-08-24T00:19:42;23.90;56.40
34640;DHT22;22600;48.186;11.526;2022-08-24T00:22:08;23.90;56.40
34640;DHT22;22600;48.186;11.526;2022-08-24T00:24:35;23.90;56.40
34640;DHT22;22600;48.186;11.526;2022-08-24T00:27:01;23.90;56.40
34640;DHT22;22600;48.186;11.526;2022-08-24T00:29:26;23.90;56.40
34640;DHT22;22600;48.186;11.526;2022-08-24T00:31:52;23.90;56.30
34640;DHT22;22600;48.186;11.526;2022-08-24T00:34:18;23.90;56.30
34640;DHT22;22600;48.186;11.526;2022-08-24T00:36:44;23.80;56.10
34640;DHT22;22600;48.186;11.526;2022-08-24T00:39:11;23.80;56.00
34640;DHT22;22600;48.186;11.526;2022-08-24T00:41:42;23.80;56.00
34640;DHT22;22600;48.186;11.526;2022-08-24T00:44:08;23.90;56.00
34640;DHT22;22600;48.186;11.526;2022-08-24T00:46:42;23.90;56.00
34640;DHT22;22600;48.186;11.526;2022-08-24T00:49:25;23.90;55.90
34640;DHT22;22600;48.186;11.526;2022-08-24T00:52:04;23.90;55.90
34640;DHT22;22600;48.186;11.526;2022-08-24T00:54:39;23.90;55.90
34640;DHT22;22600;48.186;11.526;2022-08-24T00:57:06;23.90;55.90
34640;DHT22;22600;48.186;11.526;2022-08-24T00:59:45;23.80;55.80
34640;DHT22;22600;48.186;11.526;2022-08-24T01:02:16;23.80;55.80
34640;DHT22;22600;48.186;11.526;2022-08-24T01:04:51;23.90;55.90
34640;DHT22;22600;48.186;11.526;2022-08-24T01:07:17;23.80;55.80
34640;DHT22;22600;48.186;11.526;2022-08-24T01:09:45;23.90;55.80
34640;DHT22;22600;48.186;11.526;2022-08-24T01:12:10;23.90;55.80
34640;DHT22;22600;48.186;11.526;2022-08-24T01:14:37;23.80;55.70
34640;DHT22;22600;48.186;11.526;2022-08-24T01:17:03;23.90;55.70
34640;DHT22;22600;48.186;11.526;2022-08-24T01:19:50;23.80;55.70
34640;DHT22;22600;48.186;11.526;2022-08-24T01:25:10;23.80;55.90
34640;DHT22;22600;48.186;11.526;2022-08-24T01:27:36;23.90;55.90
34640;DHT22;22600;48.186;11.526;2022-08-24T01:30:06;23.70;55.80
34640;DHT22;22600;48.186;11.526;2022-08-24T01:32:33;23.80;55.70
34640;DHT22;22600;48.186;11.526;2022-08-24T01:34:59;23.80;55.60
34640;DHT22;22600;48.186;11.526;2022-08-24T01:37:24;23.80;55.60
34640;DHT22;22600;48.186;11.526;2022-08-24T01:39:54;23.80;55.60
34640;DHT22;22600;48.186;11.526;2022-08-24T01:42:20;23.80;56.10
34640;DHT22;22600;48.186;11.526;2022-08-24T01:44:46;23.80;55.50
34640;DHT22;22600;48.186;11.526;2022-08-24T01:47:14;23.80;55.50
34640;DHT22;22600;48.186;11.526;2022-08-24T01:49:43;23.80;55.40
34640;DHT22;22600;48.186;11.526;2022-08-24T01:52:12;23.80;55.50
34640;DHT22;22600;48.186;11.526;2022-08-24T01:54:38;23.90;55.50
34640;DHT22;22600;48.186;11.526;2022-08-24T01:57:04;23.80;55.40
34640;DHT22;22600;48.186;11.526;2022-08-24T01:59:30;23.80;55.30
34640;DHT22;22600;48.186;11.526;2022-08-24T02:02:02;23.80;55.30
34640;DHT22;22600;48.186;11.526;2022-08-24T02:04:29;23.80;55.30
34640;DHT22;22600;48.186;11.526;2022-08-24T02:06:54;23.80;55.30
34640;DHT22;22600;48.186;11.526;2022-08-24T02:09:20;23.80;55.30
34640;DHT22;22600;48.186;11.526;2022-08-24T02:11:46;23.80;55.30
34640;DHT22;22600;48.186;11.526;2022-08-24T02:14:12;23.90;55.40
34640;DHT22;22600;48.186;11.526;2022-08-24T02:16:38;23.80;55.30
34640;DHT22;22600;48.186;11.526;2022-08-24T02:19:04;23.80;55.20
34640;DHT22;22600;48.186;11.526;2022-08-24T02:21:30;23.80;55.20
34640;DHT22;22600;48.186;11.526;2022-08-24T02:23:56;23.80;55.30
34640;DHT22;22600;48.186;11.526;2022-08-24T02:26:21;23.90;55.40
34640;DHT22;22600;48.186;11.526;2022-08-24T02:28:47;23.80;55.30
34640;DHT22;22600;48.186;11.526;2022-08-24T02:31:13;23.80;55.30
34640;DHT22;22600;48.186;11.526;2022-08-24T02:33:39;23.80;55.30
34640;DHT22;22600;48.186;11.526;2022-08-24T02:36:07;23.80;55.30
34640;DHT22;22600;48.186;11.526;2022-08-24T02:38:33;23.80;55.20
34640;DHT22;22600;48.186;11.526;2022-08-24T02:40:59;23.80;55.20
34640;DHT22;22600;48.186;11.526;2022-08-24T02:43:25;23.80;55.30
34640;DHT22;22600;48.186;11.526;2022-08-24T02:45:51;23.70;55.10
34640;DHT22;22600;48.186;11.526;2022-08-24T02:48:18;23.80;55.20
34640;DHT22;22600;48.186;11.526;2022-08-24T02:50:46;23.80;55.20
34640;DHT22;22600;48.186;11.526;2022-08-24T02:53:13;23.80;55.10
34640;DHT22;22600;48.186;11.526;2022-08-24T02:55:41;23.80;55.70
34640;DHT22;22600;48.186;11.526;2022-08-24T02:58:08;23.80;55.10
34640;DHT22;22600;48.186;11.526;2022-08-24T03:00:34;23.80;55.00
34640;DHT22;22600;48.186;11.526;2022-08-24T03:03:04;23.80;55.00
34640;DHT22;22600;48.186;11.526;2022-08-24T03:05:31;23.80;55.10
34640;DHT22;22600;48.186;11.526;2022-08-24T03:07:56;23.80;55.00
34640;DHT22;22600;48.186;11.526;2022-08-24T03:10:22;23.80;55.00
34640;DHT22;22600;48.186;11.526;2022-08-24T03:12:48;23.70;55.00
34640;DHT22;22600;48.186;11.526;2022-08-24T03:15:15;23.70;55.00
34640;DHT22;22600;48.186;11.526;2022-08-24T03:17:41;23.80;55.00
34640;DHT22;22600;48.186;11.526;2022-08-24T03:20:14;23.80;54.90
34640;DHT22;22600;48.186;11.526;2022-08-24T03:22:40;23.80;54.90
34640;DHT22;22600;48.186;11.526;2022-08-24T03:25:07;23.70;54.80
34640;DHT22;22600;48.186;11.526;2022-08-24T03:27:33;24.80;55.30
34640;DHT22;22600;48.186;11.526;2022-08-24T03:29:59;23.70;54.80
34640;DHT22;22600;48.186;11.526;2022-08-24T03:32:25;23.70;54.90
34640;DHT22;22600;48.186;11.526;2022-08-24T03:34:51;23.70;54.90
34640;DHT22;22600;48.186;11.526;2022-08-24T03:37:16;23.70;54.90
34640;DHT22;22600;48.186;11.526;2022-08-24T03:39:42;23.70;54.80
34640;DHT22;22600;48.186;11.526;2022-08-24T03:42:07;23.70;54.80
34640;DHT22;22600;48.186;11.526;2022-08-24T03:44:33;23.70;54.80
34640;DHT22;22600;48.186;11.526;2022-08-24T03:46:59;21.20;53.50
34640;DHT22;22600;48.186;11.526;2022-08-24T03:49:25;23.70;54.80
34640;DHT22;22600;48.186;11.526;2022-08-24T03:51:51;23.70;54.80
34640;DHT22;22600;48.186;11.526;2022-08-24T03:54:17;23.70;55.00
34640;DHT22;22600;48.186;11.526;2022-08-24T03:56:43;23.70;54.90
34640;DHT22;22600;48.186;11.526;2022-08-24T03:59:10;23.70;54.90
34640;DHT22;22600;48.186;11.526;2022-08-24T04:01:36;23.70;54.80
34640;DHT22;22600;48.186;11.526;2022-08-24T04:04:02;23.70;54.90
34640;DHT22;22600;48.186;11.526;2022-08-24T04:06:29;23.70;54.80
34640;DHT22;22600;48.186;11.526;2022-08-24T04:08:55;23.70;54.80
34640;DHT22;22600;48.186;11.526;2022-08-24T04:11:23;23.70;54.70
34640;DHT22;22600;48.186;11.526;2022-08-24T04:13:52;23.70;54.60
34640;DHT22;22600;48.186;11.526;2022-08-24T04:16:21;23.70;54.60
34640;DHT22;22600;48.186;11.526;2022-08-24T04:18:47;23.60;54.40
34640;DHT22;22600;48.186;11.526;2022-08-24T04:21:22;23.70;54.40
34640;DHT22;22600;48.186;11.526;2022-08-24T04:23:49;23.70;54.60
34640;DHT22;22600;48.186;11.526;2022-08-24T04:26:16;23.70;55.30
34640;DHT22;22600;48.186;11.526;2022-08-24T04:28:42;23.70;54.60
34640;DHT22;22600;48.186;11.526;2022-08-24T04:31:08;23.70;54.50
34640;DHT22;22600;48.186;11.526;2022-08-24T04:33:34;23.70;54.50
34640;DHT22;22600;48.186;11.526;2022-08-24T04:36:00;23.70;54.50
34640;DHT22;22600;48.186;11.526;2022-08-24T04:38:27;23.70;54.50
34640;DHT22;22600;48.186;11.526;2022-08-24T04:40:54;23.70;54.50
34640;DHT22;22600;48.186;11.526;2022-08-24T04:43:19;23.70;54.60
34640;DHT22;22600;48.186;11.526;2022-08-24T04:45:46;23.70;54.50
34640;DHT22;22600;48.186;11.526;2022-08-24T04:48:13;23.70;54.10
34640;DHT22;22600;48.186;11.526;2022-08-24T04:50:41;23.70;54.10
34640;DHT22;22600;48.186;11.526;2022-08-24T04:53:07;23.70;54.20
34640;DHT22;22600;48.186;11.526;2022-08-24T04:55:41;23.70;54.40
34640;DHT22;22600;48.186;11.526;2022-08-24T04:58:08;23.60;54.40
34640;DHT22;22600;48.186;11.526;2022-08-24T05:00:34;23.70;54.60
34640;DHT22;22600;48.186;11.526;2022-08-24T05:02:59;23.70;54.60
34640;DHT22;22600;48.186;11.526;2022-08-24T05:05:25;23.60;54.70
34640;DHT22;22600;48.186;11.526;2022-08-24T05:07:50;23.70;54.80
34640;DHT22;22600;48.186;11.526;2022-08-24T05:10:16;23.70;54.90
34640;DHT22;22600;48.186;11.526;2022-08-24T05:12:41;23.70;55.00
34640;DHT22;22600;48.186;11.526;2022-08-24T05:15:08;23.70;55.00
34640;DHT22;22600;48.186;11.526;2022-08-24T05:17:34;23.70;54.70
34640;DHT22;22600;48.186;11.526;2022-08-24T05:20:00;23.70;55.20
34640;DHT22;22600;48.186;11.526;2022-08-24T05:22:26;23.70;55.20
34640;DHT22;22600;48.186;11.526;2022-08-24T05:24:52;23.70;55.30
34640;DHT22;22600;48.186;11.526;2022-08-24T05:27:17;23.80;55.50
34640;DHT22;22600;48.186;11.526;2022-08-24T05:29:44;23.80;55.50
34640;DHT22;22600;48.186;11.526;2022-08-24T05:32:10;23.80;55.50
34640;DHT22;22600;48.186;11.526;2022-08-24T05:34:36;23.80;55.50
34640;DHT22;22600;48.186;11.526;2022-08-24T05:37:02;23.80;55.50
34640;DHT22;22600;48.186;11.526;2022-08-24T05:39:27;23.90;55.50
34640;DHT22;22600;48.186;11.526;2022-08-24T05:41:55;23.80;55.50
34640;DHT22;22600;48.186;11.526;2022-08-24T05:44:21;23.90;55.50
34640;DHT22;22600;48.186;11.526;2022-08-24T05:46:47;23.90;55.50
34640;DHT22;22600;48.186;11.526;2022-08-24T05:49:13;23.90;55.50
34640;DHT22;22600;48.186;11.526;2022-08-24T05:51:39;23.90;55.60
34640;DHT22;22600;48.186;11.526;2022-08-24T05:54:07;23.90;55.60
34640;DHT22;22600;48.186;11.526;2022-08-24T05:56:33;24.00;55.60
34640;DHT22;22600;48.186;11.526;2022-08-24T05:58:59;23.90;55.60
34640;DHT22;22600;48.186;11.526;2022-08-24T06:01:26;24.00;55.60
34640;DHT22;22600;48.186;11.526;2022-08-24T06:03:53;24.00;55.60
34640;DHT22;22600;48.186;11.526;2022-08-24T06:06:21;24.00;55.60
34640;DHT22;22600;48.186;11.526;2022-08-24T06:08:50;24.10;55.70
34640;DHT22;22600;48.186;11.526;2022-08-24T06:13:46;25.10;56.10
34640;DHT22;22600;48.186;11.526;2022-08-24T06:16:13;24.10;55.70
34640;DHT22;22600;48.186;11.526;2022-08-24T06:18:39;24.10;55.60
34640;DHT22;22600;48.186;11.526;2022-08-24T06:21:10;24.20;55.70
34640;DHT22;22600;48.186;11.526;2022-08-24T06:23:37;24.20;55.70
34640;DHT22;22600;48.186;11.526;2022-08-24T06:26:04;24.20;55.70
34640;DHT22;22600;48.186;11.526;2022-08-24T06:28:49;24.20;55.70
34640;DHT22;22600;48.186;11.526;2022-08-24T06:31:15;24.20;55.70
34640;DHT22;22600;48.186;11.526;2022-08-24T06:33:41;24.30;55.70
34640;DHT22;22600;48.186;11.526;2022-08-24T06:36:07;24.30;55.70
34640;DHT22;22600;48.186;11.526;2022-08-24T06:38:33;24.30;55.70
34640;DHT22;22600;48.186;11.526;2022-08-24T06:40:59;24.30;55.70
34640;DHT22;22600;48.186;11.526;2022-08-24T06:43:25;24.30;55.70
34640;DHT22;22600;48.186;11.526;2022-08-24T06:45:51;24.30;55.70
34640;DHT22;22600;48.186;11.526;2022-08-24T06:48:17;24.30;55.70
34640;DHT22;22600;48.186;11.526;2022-08-24T06:50:43;24.40;55.80
34640;DHT22;22600;48.186;11.526;2022-08-24T06:53:09;24.40;55.80
34640;DHT22;22600;48.186;11.526;2022-08-24T06:55:44;24.40;55.80
34640;DHT22;22600;48.186;11.526;2022-08-24T06:58:09;24.40;55.70
34640;DHT22;22600;48.186;11.526;2022-08-24T07:00:35;24.50;55.80
34640;DHT22;22600;48.186;11.526;2022-08-24T07:03:00;24.50;55.80
34640;DHT22;22600;48.186;11.526;2022-08-24T07:05:26;24.50;55.80
34640;DHT22;22600;48.186;11.526;2022-08-24T07:07:52;24.50;55.80
34640;DHT22;22600;48.186;11.526;2022-08-24T07:10:18;24.50;55.80
34640;DHT22;22600;48.186;11.526;2022-08-24T07:12:43;24.50;55.80
34640;DHT22;22600;48.186;11.526;2022-08-24T07:15:09;24.50;55.80
34640;DHT22;22600;48.186;11.526;2022-08-24T07:17:35;24.50;55.30
34640;DHT22;22600;48.186;11.526;2022-08-24T07:20:01;24.60;55.90
34640;DHT22;22600;48.186;11.526;2022-08-24T07:22:27;24.60;55.90
34640;DHT22;22600;48.186;11.526;2022-08-24T07:24:52;24.60;55.90
34640;DHT22;22600;48.186;11.526;2022-08-24T07:27:18;24.60;55.90
34640;DHT22;22600;48.186;11.526;2022-08-24T07:29:43;24.70;55.90
34640;DHT22;22600;48.186;11.526;2022-08-24T07:32:09;24.60;55.90
34640;DHT22;22600;48.186;11.526;2022-08-24T07:34:35;24.60;55.80
34640;DHT22;22600;48.186;11.526;2022-08-24T07:37:01;24.60;55.80
34640;DHT22;22600;48.186;11.526;2022-08-24T07:39:28;24.70;55.90
34640;DHT22;22600;48.186;11.526;2022-08-24T07:41:54;24.70;55.90
34640;DHT22;22600;48.186;11.526;2022-08-24T07:44:21;24.70;55.90
34640;DHT22;22600;48.186;11.526;2022-08-24T07:46:47;24.70;55.90
34640;DHT22;22600;48.186;11.526;2022-08-24T07:49:12;24.80;56.00
34640;DHT22;22600;48.186;11.526;2022-08-24T07:51:38;24.70;55.90
34640;DHT22;22600;48.186;11.526;2022-08-24T07:54:04;24.30;55.70
34640;DHT22;22600;48.186;11.526;2022-08-24T07:56:30;24.80;56.00
34640;DHT22;22600;48.186;11.526;2022-08-24T07:58:56;24.80;56.00
34640;DHT22;22600;48.186;11.526;2022-08-24T08:01:22;24.70;55.90
34640;DHT22;22600;48.186;11.526;2022-08-24T08:03:48;24.70;56.00
34640;DHT22;22600;48.186;11.526;2022-08-24T08:06:15;24.70;56.00
34640;DHT22;22600;48.186;11.526;2022-08-24T08:08:41;24.70;56.00
34640;DHT22;22600;48.186;11.526;2022-08-24T08:11:08;24.70;56.00
34640;DHT22;22600;48.186;11.526;2022-08-24T08:13:34;24.80;56.10
34640;DHT22;22600;48.186;11.526;2022-08-24T08:16:01;24.80;56.10
34640;DHT22;22600;48.186;11.526;2022-08-24T08:18:28;24.80;56.10
34640;DHT22;22600;48.186;11.526;2022-08-24T08:20:54;24.80;56.20
34640;DHT22;22600;48.186;11.526;2022-08-24T08:23:21;24.80;56.10
34640;DHT22;22600;48.186;11.526;2022-08-24T08:26:06;24.80;56.20
34640;DHT22;22600;48.186;11.526;2022-08-24T08:28:33;24.80;56.20
34640;DHT22;22600;48.186;11.526;2022-08-24T08:31:00;24.80;56.20
34640;DHT22;22600;48.186;11.526;2022-08-24T08:33:26;24.80;56.30
34640;DHT22;22600;48.186;11.526;2022-08-24T08:36:02;24.80;56.30
34640;DHT22;22600;48.186;11.526;2022-08-24T08:38:28;24.70;56.20
34640;DHT22;22600;48.186;11.526;2022-08-24T08:49:14;24.80;56.30
34640;DHT22;22600;48.186;11.526;2022-08-24T08:52:05;24.80;56.40
34640;DHT22;22600;48.186;11.526;2022-08-24T09:00:21;24.80;56.50
34640;DHT22;22600;48.186;11.526;2022-08-24T09:08:20;24.80;56.70
34640;DHT22;22600;48.186;11.526;2022-08-24T09:14:16;24.70;56.80
34640;DHT22;22600;48.186;11.526;2022-08-24T09:30:17;24.70;57.00
34640;DHT22;22600;48.186;11.526;2022-08-24T09:44:49;24.60;57.20
34640;DHT22;22600;48.186;11.526;2022-08-24T09:53:32;24.60;57.40
34640;DHT22;22600;48.186;11.526;2022-08-24T09:56:27;24.50;57.40
34640;DHT22;22600;48.186;11.526;2022-08-24T10:01:47;24.50;57.50
34640;DHT22;22600;48.186;11.526;2022-08-24T10:07:49;24.50;57.60
34640;DHT22;22600;48.186;11.526;2022-08-24T10:10:31;24.50;57.60
34640;DHT22;22600;48.186;11.526;2022-08-24T10:18:43;24.50;57.80
34640;DHT22;22600;48.186;11.526;2022-08-24T10:21:19;24.40;57.80
34640;DHT22;22600;48.186;11.526;2022-08-24T10:35:34;24.40;58.00
34640;DHT22;22600;48.186;11.526;2022-08-24T10:38:17;24.40;58.00
34640;DHT22;22600;48.186;11.526;2022-08-24T10:46:51;24.30;58.10
34640;DHT22;22600;48.186;11.526;2022-08-24T10:55:29;24.30;58.20
34640;DHT22;22600;48.186;11.526;2022-08-24T11:00:38;24.30;58.30
34640;DHT22;22600;48.186;11.526;2022-08-24T11:05:44;24.30;58.30
34640;DHT22;22600;48.186;11.526;2022-08-24T11:08:27;24.30;58.40
34640;DHT22;22600;48.186;11.526;2022-08-24T11:11:07;24.30;58.40
34640;DHT22;22600;48.186;11.526;2022-08-24T11:13:35;24.30;58.40
34640;DHT22;22600;48.186;11.526;2022-08-24T11:16:02;24.30;58.40
34640;DHT22;22600;48.186;11.526;2022-08-24T11:24:01;24.20;58.50
34640;DHT22;22600;48.186;11.526;2022-08-24T11:26:27;24.20;58.00
34640;DHT22;22600;48.186;11.526;2022-08-24T11:29:00;24.30;58.50
34640;DHT22;22600;48.186;11.526;2022-08-24T11:31:32;24.20;58.50
34640;DHT22;22600;48.186;11.526;2022-08-24T11:34:01;24.20;58.50
34640;DHT22;22600;48.186;11.526;2022-08-24T11:36:32;24.20;58.50
34640;DHT22;22600;48.186;11.526;2022-08-24T11:39:21;24.20;58.60
34640;DHT22;22600;48.186;11.526;2022-08-24T11:44:56;24.20;58.60
34640;DHT22;22600;48.186;11.526;2022-08-24T11:47:50;24.20;58.60
34640;DHT22;22600;48.186;11.526;2022-08-24T11:50:21;24.20;58.60
34640;DHT22;22600;48.186;11.526;2022-08-24T11:56:07;24.20;58.70
34640;DHT22;22600;48.186;11.526;2022-08-24T12:01:14;24.20;58.80
34640;DHT22;22600;48.186;11.526;2022-08-24T12:09:18;24.20;58.80
34640;DHT22;22600;48.186;11.526;2022-08-24T12:14:24;24.20;58.90
34640;DHT22;22600;48.186;11.526;2022-08-24T12:17:12;24.20;58.90
34640;DHT22;22600;48.186;11.526;2022-08-24T12:19:49;24.20;59.00
34640;DHT22;22600;48.186;11.526;2022-08-24T12:22:17;24.20;58.90
34640;DHT22;22600;48.186;11.526;2022-08-24T12:24:54;24.20;59.00
34640;DHT22;22600;48.186;11.526;2022-08-24T12:27:41;24.20;59.00
34640;DHT22;22600;48.186;11.526;2022-08-24T12:30:12;24.20;59.00
34640;DHT22;22600;48.186;11.526;2022-08-24T12:32:38;24.20;59.00
34640;DHT22;22600;48.186;11.526;2022-08-24T12:35:13;24.20;59.00
34640;DHT22;22600;48.186;11.526;2022-08-24T12:37:46;24.20;59.10
34640;DHT22;22600;48.186;11.526;2022-08-24T12:43:05;24.20;59.10
34640;DHT22;22600;48.186;11.526;2022-08-24T12:45:33;24.20;59.10
34640;DHT22;22600;48.186;11.526;2022-08-24T12:48:09;24.10;59.10
34640;DHT22;22600;48.186;11.526;2022-08-24T12:56:30;24.20;59.20
34640;DHT22;22600;48.186;11.526;2022-08-24T13:01:42;24.20;59.30
34640;DHT22;22600;48.186;11.526;2022-08-24T13:04:13;24.20;59.20
34640;DHT22;22600;48.186;11.526;2022-08-24T13:06:48;24.20;59.30
34640;DHT22;22600;48.186;11.526;2022-08-24T13:09:28;24.10;59.20
34640;DHT22;22600;48.186;11.526;2022-08-24T13:11:56;24.20;59.30
34640;DHT22;22600;48.186;11.526;2022-08-24T13:14:25;24.20;59.30
34640;DHT22;22600;48.186;11.526;2022-08-24T13:22:44;24.20;59.40
34640;DHT22;22600;48.186;11.526;2022-08-24T13:25:41;24.10;59.40
34640;DHT22;22600;48.186;11.526;2022-08-24T13:32:31;24.20;59.60
34640;DHT22;22600;48.186;11.526;2022-08-24T13:40:52;24.10;59.60
34640;DHT22;22600;48.186;11.526;2022-08-24T13:43:41;24.10;59.60
34640;DHT22;22600;48.186;11.526;2022-08-24T13:46:19;24.10;59.60
34640;DHT22;22600;48.186;11.526;2022-08-24T13:48:51;24.10;59.70
34640;DHT22;22600;48.186;11.526;2022-08-24T13:51:34;24.10;59.70
34640;DHT22;22600;48.186;11.526;2022-08-24T13:59:18;24.10;59.70
34640;DHT22;22600;48.186;11.526;2022-08-24T14:02:10;24.10;59.80
34640;DHT22;22600;48.186;11.526;2022-08-24T14:05:04;24.10;59.70
34640;DHT22;22600;48.186;11.526;2022-08-24T14:07:50;24.20;59.80
34640;DHT22;22600;48.186;11.526;2022-08-24T14:22:02;24.20;59.80
34640;DHT22;22600;48.186;11.526;2022-08-24T14:24:44;24.20;59.80
34640;DHT22;22600;48.186;11.526;2022-08-24T14:27:37;24.10;59.80
34640;DHT22;22600;48.186;11.526;2022-08-24T14:38:11;24.10;59.80
34640;DHT22;22600;48.186;11.526;2022-08-24T14:40:57;24.10;59.80
34640;DHT22;22600;48.186;11.526;2022-08-24T14:43:57;24.10;59.90
34640;DHT22;22600;48.186;11.526;2022-08-24T14:46:43;24.10;59.90
34640;DHT22;22600;48.186;11.526;2022-08-24T14:49:27;24.10;59.90
34640;DHT22;22600;48.186;11.526;2022-08-24T14:54:50;24.10;59.90
34640;DHT22;22600;48.186;11.526;2022-08-24T14:57:30;24.10;59.90
34640;DHT22;22600;48.186;11.526;2022-08-24T15:00:25;24.10;60.00
34640;DHT22;22600;48.186;11.526;2022-08-24T15:06:01;24.10;60.00
34640;DHT22;22600;48.186;11.526;2022-08-24T15:08:34;24.10;59.60
34640;DHT22;22600;48.186;11.526;2022-08-24T15:11:13;24.10;60.00
34640;DHT22;22600;48.186;11.526;2022-08-24T15:16:20;24.10;60.10
34640;DHT22;22600;48.186;11.526;2022-08-24T15:18:59;24.10;60.10
34640;DHT22;22600;48.186;11.526;2022-08-24T15:21:57;24.10;60.10
34640;DHT22;22600;48.186;11.526;2022-08-24T15:24:51;24.10;60.20
34640;DHT22;22600;48.186;11.526;2022-08-24T15:27:23;24.10;60.30
34640;DHT22;22600;48.186;11.526;2022-08-24T15:29:59;24.10;60.40
34640;DHT22;22600;48.186;11.526;2022-08-24T15:32:46;24.10;60.60
34640;DHT22;22600;48.186;11.526;2022-08-24T15:37:47;24.10;60.70
34640;DHT22;22600;48.186;11.526;2022-08-24T15:42:47;24.10;60.90
34640;DHT22;22600;48.186;11.526;2022-08-24T15:45:15;24.10;61.00
34640;DHT22;22600;48.186;11.526;2022-08-24T15:47:44;24.10;61.00
34640;DHT22;22600;48.186;11.526;2022-08-24T15:50:33;24.10;61.10
34640;DHT22;22600;48.186;11.526;2022-08-24T15:53:07;24.20;61.10
34640;DHT22;22600;48.186;11.526;2022-08-24T15:55:49;24.20;61.10
34640;DHT22;22600;48.186;11.526;2022-08-24T15:58:19;24.20;61.20
34640;DHT22;22600;48.186;11.526;2022-08-24T16:00:45;24.20;61.10
34640;DHT22;22600;48.186;11.526;2022-08-24T16:03:49;24.20;61.20
34640;DHT22;22600;48.186;11.526;2022-08-24T16:09:05;24.20;61.20
34640;DHT22;22600;48.186;11.526;2022-08-24T16:11:44;24.20;61.20
34640;DHT22;22600;48.186;11.526;2022-08-24T16:14:30;24.20;61.10
34640;DHT22;22600;48.186;11.526;2022-08-24T16:16:57;24.10;61.10
34640;DHT22;22600;48.186;11.526;2022-08-24T16:19:27;24.20;61.10
34640;DHT22;22600;48.186;11.526;2022-08-24T16:22:04;21.80;60.40
34640;DHT22;22600;48.186;11.526;2022-08-24T16:24:35;24.20;61.20
34640;DHT22;22600;48.186;11.526;2022-08-24T16:27:13;24.20;61.30
34640;DHT22;22600;48.186;11.526;2022-08-24T16:34:46;24.20;61.30
34640;DHT22;22600;48.186;11.526;2022-08-24T16:37:13;24.20;61.30
34640;DHT22;22600;48.186;11.526;2022-08-24T16:39:39;24.20;61.30
34640;DHT22;22600;48.186;11.526;2022-08-24T16:42:09;24.20;61.40
34640;DHT22;22600;48.186;11.526;2022-08-24T16:44:39;24.20;61.40
34640;DHT22;22600;48.186;11.526;2022-08-24T16:47:06;24.20;61.40
34640;DHT22;22600;48.186;11.526;2022-08-24T16:49:33;24.20;61.40
34640;DHT22;22600;48.186;11.526;2022-08-24T16:51:59;24.20;61.40
34640;DHT22;22600;48.186;11.526;2022-08-24T16:54:28;24.10;61.40
34640;DHT22;22600;48.186;11.526;2022-08-24T16:56:57;24.20;61.40
34640;DHT22;22600;48.186;11.526;2022-08-24T16:59:29;24.20;61.40
34640;DHT22;22600;48.186;11.526;2022-08-24T17:01:57;24.20;61.40
34640;DHT22;22600;48.186;11.526;2022-08-24T17:04:23;24.20;61.40
34640;DHT22;22600;48.186;11.526;2022-08-24T17:06:48;24.20;61.40
34640;DHT22;22600;48.186;11.526;2022-08-24T17:09:15;24.20;61.50
34640;DHT22;22600;48.186;11.526;2022-08-24T17:11:41;24.20;61.50
34640;DHT22;22600;48.186;11.526;2022-08-24T17:14:08;24.20;61.50
34640;DHT22;22600;48.186;11.526;2022-08-24T17:16:34;24.20;61.50
34640;DHT22;22600;48.186;11.526;2022-08-24T17:19:01;24.20;61.50
34640;DHT22;22600;48.186;11.526;2022-08-24T17:21:27;24.20;61.50
34640;DHT22;22600;48.186;11.526;2022-08-24T17:23:53;24.20;61.60
34640;DHT22;22600;48.186;11.526;2022-08-24T17:26:19;24.10;61.50
34640;DHT22;22600;48.186;11.526;2022-08-24T17:28:44;24.20;61.50
34640;DHT22;22600;48.186;11.526;2022-08-24T17:31:13;24.20;61.60
34640;DHT22;22600;48.186;11.526;2022-08-24T17:33:40;24.20;61.60
34640;DHT22;22600;48.186;11.526;2022-08-24T17:36:07;24.20;61.60
34640;DHT22;22600;48.186;11.526;2022-08-24T17:38:38;24.10;61.60
34640;DHT22;22600;48.186;11.526;2022-08-24T17:41:07;24.20;61.60
34640;DHT22;22600;48.186;11.526;2022-08-24T17:43:33;24.20;61.70
34640;DHT22;22600;48.186;11.526;2022-08-24T17:45:59;24.10;61.60
34640;DHT22;22600;48.186;11.526;2022-08-24T17:48:25;24.00;61.50
34640;DHT22;22600;48.186;11.526;2022-08-24T17:50:52;24.20;61.60
34640;DHT22;22600;48.186;11.526;2022-08-24T17:53:18;24.10;61.60
34640;DHT22;22600;48.186;11.526;2022-08-24T17:55:43;24.20;61.70
34640;DHT22;22600;48.186;11.526;2022-08-24T17:58:09;24.20;61.70
34640;DHT22;22600;48.186;11.526;2022-08-24T18:00:35;24.10;61.60
34640;DHT22;22600;48.186;11.526;2022-08-24T18:03:01;24.10;61.60
34640;DHT22;22600;48.186;11.526;2022-08-24T18:05:27;24.20;61.70
34640;DHT22;22600;48.186;11.526;2022-08-24T18:07:54;24.10;61.60
34640;DHT22;22600;48.186;11.526;2022-08-24T18:10:24;24.10;61.50
34640;DHT22;22600;48.186;11.526;2022-08-24T18:12:50;24.10;61.50
34640;DHT22;22600;48.186;11.526;2022-08-24T18:15:16;24.10;61.50
34640;DHT22;22600;48.186;11.526;2022-08-24T18:17:44;24.20;61.60
34640;DHT22;22600;48.186;11.526;2022-08-24T18:20:11;24.10;61.50
34640;DHT22;22600;48.186;11.526;2022-08-24T18:22:37;24.10;61.50
34640;DHT22;22600;48.186;11.526;2022-08-24T18:25:16;24.10;61.50
34640;DHT22;22600;48.186;11.526;2022-08-24T18:27:43;24.20;61.60
34640;DHT22;22600;48.186;11.526;2022-08-24T18:30:18;24.10;61.60
34640;DHT22;22600;48.186;11.526;2022-08-24T18:32:44;24.10;61.50
34640;DHT22;22600;48.186;11.526;2022-08-24T18:35:10;24.10;61.50
34640;DHT22;22600;48.186;11.526;2022-08-24T18:37:35;24.10;61.50
34640;DHT22;22600;48.186;11.526;2022-08-24T18:40:02;24.00;61.50
34640;DHT22;22600;48.186;11.526;2022-08-24T18:42:28;24.10;61.50
34640;DHT22;22600;48.186;11.526;2022-08-24T18:44:54;24.20;61.60
34640;DHT22;22600;48.186;11.526;2022-08-24T18:47:19;24.20;61.60